Time,TemperatureF,DewpointF,PressureIn,WindDirection,WindDirectionDegrees,WindSpeedMPH,WindSpeedGustMPH,Humidity,HourlyPrecipIn,Conditions,Clouds,dailyrainin,SoftwareType,DateUTC
2013-07-09 00:01:00,60.1,55.6,30.09,East,95,0.0,1.0,85,0.00,,,0.00,meteohub,2013-07-09 07:01:00,
2013-07-09 00:06:00,60.1,55.6,30.09,East,95,0.0,1.0,85,0.00,,,0.00,meteohub,2013-07-09 07:06:00,
2013-07-09 00:11:00,59.7,55.2,30.09,East,95,0.0,1.0,85,0.00,,,0.00,meteohub,2013-07-09 07:11:00,
2013-07-09 00:16:00,59.4,55.2,30.09,East,95,0.0,1.0,86,0.00,,,0.00,meteohub,2013-07-09 07:16:00,
2013-07-09 00:21:00,59.2,55.0,30.09,East,95,0.0,1.0,86,0.00,,,0.00,meteohub,2013-07-09 07:21:00,
2013-07-09 00:26:00,59.0,54.9,30.09,East,95,0.0,1.0,86,0.00,,,0.00,meteohub,2013-07-09 07:26:00,
2013-07-09 00:31:00,59.0,55.2,30.09,East,95,0.0,1.0,87,0.00,,,0.00,meteohub,2013-07-09 07:31:00,
2013-07-09 00:36:00,59.0,55.2,30.09,East,95,0.0,1.0,87,0.00,,,0.00,meteohub,2013-07-09 07:36:00,
2013-07-09 00:41:00,59.0,55.2,30.09,East,95,0.0,1.0,87,0.00,,,0.00,meteohub,2013-07-09 07:41:00,
2013-07-09 00:46:00,59.0,55.2,30.09,East,95,0.0,1.0,87,0.00,,,0.00,meteohub,2013-07-09 07:46:00,
2013-07-09 00:53:00,59.0,55.2,30.09,East,95,0.0,1.0,87,0.00,,,0.00,meteohub,2013-07-09 07:53:00,
2013-07-09 00:58:00,59.0,55.2,30.10,East,95,0.0,1.0,87,0.00,,,0.00,meteohub,2013-07-09 07:58:00,
2013-07-09 01:03:00,59.0,55.2,30.10,East,95,0.0,1.0,87,0.00,,,0.00,meteohub,2013-07-09 08:03:00,
2013-07-09 01:08:00,59.0,55.2,30.10,East,95,0.0,1.0,87,0.00,,,0.00,meteohub,2013-07-09 08:08:00,
2013-07-09 01:13:00,59.0,55.2,30.10,East,95,0.0,1.0,87,0.00,,,0.00,meteohub,2013-07-09 08:13:00,
2013-07-09 01:18:00,58.8,54.7,30.10,East,95,0.0,1.0,86,0.00,,,0.00,meteohub,2013-07-09 08:18:00,
2013-07-09 01:23:00,58.6,54.9,30.10,East,95,0.0,1.0,87,0.00,,,0.00,meteohub,2013-07-09 08:23:00,
2013-07-09 01:28:00,58.8,55.0,30.10,East,95,0.0,1.0,87,0.00,,,0.00,meteohub,2013-07-09 08:28:00,
2013-07-09 01:33:00,59.0,55.2,30.10,East,95,0.0,1.0,87,0.00,,,0.00,meteohub,2013-07-09 08:33:00,
2013-07-09 01:38:00,59.0,54.9,30.10,East,95,0.0,1.0,86,0.00,,,0.00,meteohub,2013-07-09 08:38:00,
2013-07-09 01:43:00,58.8,54.7,30.10,East,95,0.0,1.0,86,0.00,,,0.00,meteohub,2013-07-09 08:43:00,
2013-07-09 01:48:00,58.6,54.5,30.10,East,95,0.0,1.0,86,0.00,,,0.00,meteohub,2013-07-09 08:48:00,
2013-07-09 01:53:00,58.5,54.3,30.10,East,95,0.0,1.0,86,0.00,,,0.00,meteohub,2013-07-09 08:53:00,
2013-07-09 01:58:00,58.5,54.3,30.10,East,95,0.0,1.0,86,0.00,,,0.00,meteohub,2013-07-09 08:58:00,
2013-07-09 02:03:00,58.5,54.3,30.10,East,95,0.0,1.0,86,0.00,,,0.00,meteohub,2013-07-09 09:03:00,
2013-07-09 02:08:00,58.6,54.5,30.10,East,95,0.0,1.0,86,0.00,,,0.00,meteohub,2013-07-09 09:08:00,
2013-07-09 02:13:00,58.6,54.5,30.10,East,95,0.0,1.0,86,0.00,,,0.00,meteohub,2013-07-09 09:13:00,
2013-07-09 02:18:00,58.5,54.3,30.10,East,95,0.0,1.0,86,0.00,,,0.00,meteohub,2013-07-09 09:18:00,
2013-07-09 02:23:00,58.5,54.3,30.10,East,95,0.0,1.0,86,0.00,,,0.00,meteohub,2013-07-09 09:23:00,
2013-07-09 02:28:00,58.5,54.3,30.10,East,95,0.0,1.0,86,0.00,,,0.00,meteohub,2013-07-09 09:28:00,
2013-07-09 02:33:00,58.5,54.3,30.10,East,95,0.0,1.0,86,0.00,,,0.00,meteohub,2013-07-09 09:33:00,
2013-07-09 02:38:00,58.3,54.1,30.10,East,95,0.0,1.0,86,0.00,,,0.00,meteohub,2013-07-09 09:38:00,
2013-07-09 02:43:00,58.3,54.1,30.10,East,95,0.0,1.0,86,0.00,,,0.00,meteohub,2013-07-09 09:43:00,
2013-07-09 02:48:00,58.5,54.3,30.10,East,95,0.0,1.0,86,0.00,,,0.00,meteohub,2013-07-09 09:48:00,
2013-07-09 02:53:00,58.5,54.3,30.10,East,95,0.0,0.0,86,0.00,,,0.00,meteohub,2013-07-09 09:53:00,
2013-07-09 02:59:00,58.6,54.5,30.10,East,95,0.0,0.0,86,0.00,,,0.00,meteohub,2013-07-09 09:59:00,
2013-07-09 03:04:00,58.5,54.0,30.10,East,95,0.0,1.0,85,0.00,,,0.00,meteohub,2013-07-09 10:04:00,
2013-07-09 03:09:00,58.3,53.8,30.10,East,95,0.0,1.0,85,0.00,,,0.00,meteohub,2013-07-09 10:09:00,
2013-07-09 03:14:00,58.3,54.1,30.10,East,95,0.0,1.0,86,0.00,,,0.00,meteohub,2013-07-09 10:14:00,
2013-07-09 03:19:00,58.1,54.0,30.10,East,95,0.0,1.0,86,0.00,,,0.00,meteohub,2013-07-09 10:19:00,
2013-07-09 03:24:00,58.3,54.1,30.10,East,95,0.0,1.0,86,0.00,,,0.00,meteohub,2013-07-09 10:24:00,
2013-07-09 03:29:00,58.3,53.8,30.10,East,95,0.0,1.0,85,0.00,,,0.00,meteohub,2013-07-09 10:29:00,
2013-07-09 03:34:00,57.9,53.4,30.10,East,95,0.0,1.0,85,0.00,,,0.00,meteohub,2013-07-09 10:34:00,
2013-07-09 03:39:00,57.7,53.2,30.10,East,95,0.0,1.0,85,0.00,,,0.00,meteohub,2013-07-09 10:39:00,
2013-07-09 03:44:00,57.6,53.1,30.10,East,95,0.0,1.0,85,0.00,,,0.00,meteohub,2013-07-09 10:44:00,
2013-07-09 03:49:00,57.4,53.2,30.10,East,95,0.0,1.0,86,0.00,,,0.00,meteohub,2013-07-09 10:49:00,
2013-07-09 03:54:00,57.4,53.2,30.10,East,95,0.0,1.0,86,0.00,,,0.00,meteohub,2013-07-09 10:54:00,
2013-07-09 03:59:00,57.4,53.2,30.10,East,95,0.0,1.0,86,0.00,,,0.00,meteohub,2013-07-09 10:59:00,
2013-07-09 04:04:00,57.6,53.4,30.10,East,95,0.0,1.0,86,0.00,,,0.00,meteohub,2013-07-09 11:04:00,
2013-07-09 04:09:00,57.7,53.2,30.10,East,95,0.0,1.0,85,0.00,,,0.00,meteohub,2013-07-09 11:09:00,
2013-07-09 04:14:00,57.7,53.2,30.10,East,95,0.0,1.0,85,0.00,,,0.00,meteohub,2013-07-09 11:14:00,
2013-07-09 04:19:00,58.1,53.6,30.10,East,95,0.0,1.0,85,0.00,,,0.00,meteohub,2013-07-09 11:19:00,
2013-07-09 04:24:00,58.3,53.4,30.10,East,95,0.0,1.0,84,0.00,,,0.00,meteohub,2013-07-09 11:24:00,
2013-07-09 04:29:00,58.1,52.9,30.10,East,95,0.0,1.0,83,0.00,,,0.00,meteohub,2013-07-09 11:29:00,
2013-07-09 04:34:00,57.9,52.7,30.11,East,95,0.0,0.0,83,0.00,,,0.00,meteohub,2013-07-09 11:34:00,
2013-07-09 04:39:00,57.7,52.9,30.11,East,95,0.0,1.0,84,0.00,,,0.00,meteohub,2013-07-09 11:39:00,
2013-07-09 04:44:00,57.6,52.7,30.11,East,95,0.0,1.0,84,0.00,,,0.00,meteohub,2013-07-09 11:44:00,
2013-07-09 04:49:00,57.6,52.7,30.11,East,95,0.0,1.0,84,0.00,,,0.00,meteohub,2013-07-09 11:49:00,
2013-07-09 04:54:00,57.2,52.3,30.11,East,95,0.0,1.0,84,0.00,,,0.00,meteohub,2013-07-09 11:54:00,
2013-07-09 04:59:00,56.8,52.3,30.11,East,95,0.0,1.0,85,0.00,,,0.00,meteohub,2013-07-09 11:59:00,
2013-07-09 05:04:00,56.8,52.3,30.11,East,95,0.0,1.0,85,0.00,,,0.00,meteohub,2013-07-09 12:04:00,
2013-07-09 05:09:00,56.8,52.3,30.11,East,95,0.0,1.0,85,0.00,,,0.00,meteohub,2013-07-09 12:09:00,
2013-07-09 05:14:00,57.0,52.5,30.11,East,95,0.0,2.0,85,0.00,,,0.00,meteohub,2013-07-09 12:14:00,
2013-07-09 05:19:00,57.2,52.7,30.11,East,95,0.0,2.0,85,0.00,,,0.00,meteohub,2013-07-09 12:19:00,
2013-07-09 05:24:00,57.4,52.9,30.11,East,95,0.0,2.0,85,0.00,,,0.00,meteohub,2013-07-09 12:24:00,
2013-07-09 05:29:00,57.2,52.7,30.11,East,95,0.0,1.0,85,0.00,,,0.00,meteohub,2013-07-09 12:29:00,
2013-07-09 05:34:00,56.8,52.3,30.11,East,95,0.0,1.0,85,0.00,,,0.00,meteohub,2013-07-09 12:34:00,
2013-07-09 05:39:00,56.5,52.3,30.11,East,95,0.0,1.0,86,0.00,,,0.00,meteohub,2013-07-09 12:39:00,
2013-07-09 05:45:00,56.3,52.2,30.11,East,95,0.0,1.0,86,0.00,,,0.00,meteohub,2013-07-09 12:45:00,
2013-07-09 05:50:00,56.1,52.0,30.11,East,95,0.0,1.0,86,0.00,,,0.00,meteohub,2013-07-09 12:50:00,
2013-07-09 05:55:00,56.3,52.5,30.11,East,95,0.0,1.0,87,0.00,,,0.00,meteohub,2013-07-09 12:55:00,
2013-07-09 06:00:00,56.1,52.3,30.11,East,95,0.0,1.0,87,0.00,,,0.00,meteohub,2013-07-09 13:00:00,
2013-07-09 06:05:00,56.3,52.5,30.11,East,95,0.0,1.0,87,0.00,,,0.00,meteohub,2013-07-09 13:05:00,
2013-07-09 06:10:00,56.5,52.7,30.12,East,95,0.0,1.0,87,0.00,,,0.00,meteohub,2013-07-09 13:10:00,
2013-07-09 06:15:00,56.7,52.9,30.12,East,95,0.0,1.0,87,0.00,,,0.00,meteohub,2013-07-09 13:15:00,
2013-07-09 06:20:00,57.0,53.2,30.11,East,95,0.0,1.0,87,0.00,,,0.00,meteohub,2013-07-09 13:20:00,
2013-07-09 06:25:00,57.4,53.2,30.12,East,95,0.0,1.0,86,0.00,,,0.00,meteohub,2013-07-09 13:25:00,
2013-07-09 06:30:00,57.6,53.4,30.12,East,95,0.0,1.0,86,0.00,,,0.00,meteohub,2013-07-09 13:30:00,
2013-07-09 06:35:00,57.7,53.6,30.12,East,95,0.0,1.0,86,0.00,,,0.00,meteohub,2013-07-09 13:35:00,
2013-07-09 06:40:00,58.1,54.3,30.12,East,95,0.0,1.0,87,0.00,,,0.00,meteohub,2013-07-09 13:40:00,
2013-07-09 06:45:00,58.5,54.3,30.12,East,95,0.0,1.0,86,0.00,,,0.00,meteohub,2013-07-09 13:45:00,
2013-07-09 06:50:00,59.0,54.9,30.12,East,95,0.0,1.0,86,0.00,,,0.00,meteohub,2013-07-09 13:50:00,
2013-07-09 06:55:00,59.4,55.2,30.12,East,95,0.0,1.0,86,0.00,,,0.00,meteohub,2013-07-09 13:55:00,
2013-07-09 07:00:00,59.5,55.4,30.12,East,95,0.0,1.0,86,0.00,,,0.00,meteohub,2013-07-09 14:00:00,
2013-07-09 07:05:00,60.1,55.9,30.12,East,95,0.0,1.0,86,0.00,,,0.00,meteohub,2013-07-09 14:05:00,
2013-07-09 07:10:00,60.4,56.3,30.12,East,95,0.0,1.0,86,0.00,,,0.00,meteohub,2013-07-09 14:10:00,
2013-07-09 07:15:00,60.8,56.7,30.12,East,95,0.0,0.0,86,0.00,,,0.00,meteohub,2013-07-09 14:15:00,
2013-07-09 07:20:00,61.0,56.5,30.12,East,95,0.0,0.0,85,0.00,,,0.00,meteohub,2013-07-09 14:20:00,
2013-07-09 07:25:00,61.2,56.7,30.12,East,95,0.0,0.0,85,0.00,,,0.00,meteohub,2013-07-09 14:25:00,
2013-07-09 07:30:00,61.3,56.5,30.12,East,95,0.0,0.0,84,0.00,,,0.00,meteohub,2013-07-09 14:30:00,
2013-07-09 07:35:00,61.5,57.0,30.12,East,95,0.0,0.0,85,0.00,,,0.00,meteohub,2013-07-09 14:35:00,
2013-07-09 07:40:00,62.1,57.6,30.12,East,95,0.0,0.0,85,0.00,,,0.00,meteohub,2013-07-09 14:40:00,
2013-07-09 07:45:00,62.4,57.6,30.12,SE,126,0.0,1.0,84,0.00,,,0.00,meteohub,2013-07-09 14:45:00,
2013-07-09 07:50:00,63.0,58.1,30.12,SE,127,0.0,3.0,84,0.00,,,0.00,meteohub,2013-07-09 14:50:00,
2013-07-09 07:56:00,63.1,57.9,30.12,SE,127,1.0,3.0,83,0.00,,,0.00,meteohub,2013-07-09 14:56:00,
2013-07-09 08:01:00,63.3,57.7,30.12,SSE,165,0.0,3.0,82,0.00,,,0.00,meteohub,2013-07-09 15:01:00,
2013-07-09 08:06:00,63.7,58.1,30.12,SSE,166,0.0,3.0,82,0.00,,,0.00,meteohub,2013-07-09 15:06:00,
2013-07-09 08:11:00,63.9,57.9,30.12,SSE,156,0.0,3.0,81,0.00,,,0.00,meteohub,2013-07-09 15:11:00,
2013-07-09 08:16:00,64.0,58.5,30.12,SSE,156,0.0,3.0,82,0.00,,,0.00,meteohub,2013-07-09 15:16:00,
2013-07-09 08:21:00,64.2,58.3,30.12,SSE,159,0.0,3.0,81,0.00,,,0.00,meteohub,2013-07-09 15:21:00,
2013-07-09 08:26:00,64.8,58.5,30.13,SSE,167,0.0,3.0,80,0.00,,,0.00,meteohub,2013-07-09 15:26:00,
2013-07-09 08:31:00,65.7,59.0,30.13,SSE,167,0.0,5.0,79,0.00,,,0.00,meteohub,2013-07-09 15:31:00,
2013-07-09 08:36:00,66.4,59.4,30.13,SSE,167,0.0,5.0,78,0.00,,,0.00,meteohub,2013-07-09 15:36:00,
2013-07-09 08:41:00,66.9,60.3,30.13,SSE,158,0.0,5.0,79,0.00,,,0.00,meteohub,2013-07-09 15:41:00,
2013-07-09 08:46:00,66.7,60.1,30.13,SSE,157,0.0,3.0,79,0.00,,,0.00,meteohub,2013-07-09 15:46:00,
2013-07-09 08:51:00,66.6,60.3,30.13,SSE,167,0.0,5.0,80,0.00,,,0.00,meteohub,2013-07-09 15:51:00,
2013-07-09 08:56:00,66.4,60.1,30.13,SSE,159,0.0,5.0,80,0.00,,,0.00,meteohub,2013-07-09 15:56:00,
2013-07-09 09:01:00,66.6,60.6,30.13,SSE,166,3.0,5.0,81,0.00,,,0.00,meteohub,2013-07-09 16:01:00,
2013-07-09 09:06:00,66.4,60.4,30.13,SSE,166,3.0,4.0,81,0.00,,,0.00,meteohub,2013-07-09 16:06:00,
2013-07-09 09:11:00,66.6,60.6,30.13,SSE,159,0.0,4.0,81,0.00,,,0.00,meteohub,2013-07-09 16:11:00,
2013-07-09 09:16:00,66.9,61.0,30.12,South,176,1.0,4.0,81,0.00,,,0.00,meteohub,2013-07-09 16:16:00,
2013-07-09 09:21:00,66.7,60.4,30.13,ESE,104,1.0,4.0,80,0.00,,,0.00,meteohub,2013-07-09 16:21:00,
2013-07-09 09:26:00,66.7,60.4,30.13,SSE,163,2.0,5.0,80,0.00,,,0.00,meteohub,2013-07-09 16:26:00,
2013-07-09 09:31:00,66.2,60.3,30.13,SSE,153,4.0,10.0,81,0.00,,,0.00,meteohub,2013-07-09 16:31:00,
2013-07-09 09:36:00,66.0,60.4,30.13,SSE,161,0.0,10.0,82,0.00,,,0.00,meteohub,2013-07-09 16:36:00,
2013-07-09 09:41:00,66.0,60.4,30.13,SSE,165,5.0,10.0,82,0.00,,,0.00,meteohub,2013-07-09 16:41:00,
2013-07-09 09:46:00,65.5,60.3,30.13,SSE,153,3.0,7.0,83,0.00,,,0.00,meteohub,2013-07-09 16:46:00,
2013-07-09 09:51:00,65.7,60.4,30.13,SE,144,2.0,7.0,83,0.00,,,0.00,meteohub,2013-07-09 16:51:00,
2013-07-09 09:56:00,65.5,60.3,30.13,SSE,163,6.0,7.0,83,0.00,,,0.00,meteohub,2013-07-09 16:56:00,
2013-07-09 10:01:00,65.5,60.4,30.13,SSE,155,2.0,7.0,84,0.00,,,0.00,meteohub,2013-07-09 17:01:00,
2013-07-09 10:06:00,65.5,60.4,30.13,South,173,6.0,7.0,84,0.00,,,0.00,meteohub,2013-07-09 17:06:00,
2013-07-09 10:11:00,65.1,60.1,30.13,South,175,6.0,7.0,84,0.00,,,0.00,meteohub,2013-07-09 17:11:00,
2013-07-09 10:16:00,64.9,59.7,30.13,SSE,159,1.0,7.0,83,0.00,,,0.00,meteohub,2013-07-09 17:16:00,
2013-07-09 10:21:00,65.5,60.4,30.13,SSE,150,5.0,7.0,84,0.00,,,0.00,meteohub,2013-07-09 17:21:00,
2013-07-09 10:26:00,65.8,60.6,30.12,South,187,5.0,7.0,83,0.00,,,0.00,meteohub,2013-07-09 17:26:00,
2013-07-09 10:31:00,65.7,60.1,30.12,SSE,165,1.0,7.0,82,0.00,,,0.00,meteohub,2013-07-09 17:31:00,
2013-07-09 10:36:00,66.4,60.8,30.12,SSE,166,2.0,6.0,82,0.00,,,0.00,meteohub,2013-07-09 17:36:00,
2013-07-09 10:42:00,66.6,60.6,30.12,South,190,0.0,7.0,81,0.00,,,0.00,meteohub,2013-07-09 17:42:00,
2013-07-09 10:47:00,66.6,60.3,30.12,SSW,201,6.0,7.0,80,0.00,,,0.00,meteohub,2013-07-09 17:47:00,
2013-07-09 10:52:00,66.9,60.6,30.12,SSE,167,0.0,7.0,80,0.00,,,0.00,meteohub,2013-07-09 17:52:00,
2013-07-09 10:57:00,67.3,60.6,30.12,SSE,159,0.0,6.0,79,0.00,,,0.00,meteohub,2013-07-09 17:57:00,
2013-07-09 11:02:00,67.3,60.3,30.12,South,171,0.0,6.0,78,0.00,,,0.00,meteohub,2013-07-09 18:02:00,
2013-07-09 11:07:00,67.1,60.1,30.12,SSE,161,2.0,7.0,78,0.00,,,0.00,meteohub,2013-07-09 18:07:00,
2013-07-09 11:12:00,66.9,59.9,30.12,South,172,1.0,7.0,78,0.00,,,0.00,meteohub,2013-07-09 18:12:00,
2013-07-09 11:17:00,67.6,60.3,30.12,ESE,107,3.0,7.0,77,0.00,,,0.00,meteohub,2013-07-09 18:17:00,
2013-07-09 11:22:00,68.7,60.4,30.12,ESE,118,0.0,7.0,75,0.00,,,0.00,meteohub,2013-07-09 18:22:00,
2013-07-09 11:27:00,68.9,60.3,30.11,SE,146,0.0,4.0,74,0.00,,,0.00,meteohub,2013-07-09 18:27:00,
2013-07-09 11:32:00,69.4,60.1,30.12,South,183,1.0,4.0,72,0.00,,,0.00,meteohub,2013-07-09 18:32:00,
2013-07-09 11:37:00,68.9,59.9,30.11,South,188,0.0,4.0,73,0.00,,,0.00,meteohub,2013-07-09 18:37:00,
2013-07-09 11:42:00,68.7,59.7,30.11,SSE,157,0.0,7.0,73,0.00,,,0.00,meteohub,2013-07-09 18:42:00,
2013-07-09 11:47:00,69.3,61.0,30.11,SSE,164,0.0,7.0,75,0.00,,,0.00,meteohub,2013-07-09 18:47:00,
2013-07-09 11:52:00,70.2,59.9,30.11,South,169,1.0,5.0,70,0.00,,,0.00,meteohub,2013-07-09 18:52:00,
2013-07-09 11:57:00,69.6,60.3,30.11,SSE,158,2.0,6.0,72,0.00,,,0.00,meteohub,2013-07-09 18:57:00,
2013-07-09 12:02:00,69.6,60.3,30.11,SSE,162,0.0,6.0,72,0.00,,,0.00,meteohub,2013-07-09 19:02:00,
2013-07-09 12:07:00,70.3,60.1,30.11,SSE,155,0.0,6.0,70,0.00,,,0.00,meteohub,2013-07-09 19:07:00,
2013-07-09 12:12:00,71.1,60.8,30.11,SW,215,2.0,6.0,70,0.00,,,0.00,meteohub,2013-07-09 19:12:00,
2013-07-09 12:17:00,69.3,60.3,30.11,SW,225,1.0,6.0,73,0.00,,,0.00,meteohub,2013-07-09 19:17:00,
2013-07-09 12:22:00,69.1,60.8,30.11,SW,222,4.0,9.0,75,0.00,,,0.00,meteohub,2013-07-09 19:22:00,
2013-07-09 12:27:00,69.1,60.4,30.11,SW,236,3.0,5.0,74,0.00,,,0.00,meteohub,2013-07-09 19:27:00,
2013-07-09 12:32:00,69.1,60.8,30.10,South,180,0.0,6.0,75,0.00,,,0.00,meteohub,2013-07-09 19:32:00,
2013-07-09 12:37:00,70.3,60.8,30.10,SSE,164,1.0,6.0,72,0.00,,,0.00,meteohub,2013-07-09 19:37:00,
2013-07-09 12:42:00,71.4,60.8,30.10,SSW,192,0.0,4.0,69,0.00,,,0.00,meteohub,2013-07-09 19:42:00,
2013-07-09 12:47:00,71.2,60.1,30.11,SSE,160,3.0,5.0,68,0.00,,,0.00,meteohub,2013-07-09 19:47:00,
2013-07-09 12:52:00,70.5,60.3,30.10,South,176,0.0,6.0,70,0.00,,,0.00,meteohub,2013-07-09 19:52:00,
2013-07-09 12:57:00,70.9,60.6,30.10,SSE,160,0.0,6.0,70,0.00,,,0.00,meteohub,2013-07-09 19:57:00,
2013-07-09 13:02:00,70.5,60.3,30.10,South,182,0.0,6.0,70,0.00,,,0.00,meteohub,2013-07-09 20:02:00,
2013-07-09 13:07:00,70.9,60.3,30.10,SSE,161,1.0,7.0,69,0.00,,,0.00,meteohub,2013-07-09 20:07:00,
2013-07-09 13:12:00,71.1,60.4,30.10,SSE,164,1.0,7.0,69,0.00,,,0.00,meteohub,2013-07-09 20:12:00,
2013-07-09 13:17:00,72.0,60.8,30.10,SSW,206,0.0,7.0,68,0.00,,,0.00,meteohub,2013-07-09 20:17:00,
2013-07-09 13:22:00,72.0,59.9,30.09,SSE,160,1.0,6.0,66,0.00,,,0.00,meteohub,2013-07-09 20:22:00,
2013-07-09 13:27:00,71.8,60.6,30.09,SSE,153,0.0,6.0,68,0.00,,,0.00,meteohub,2013-07-09 20:27:00,
2013-07-09 13:32:00,70.9,59.7,30.09,SSE,157,3.0,6.0,68,0.00,,,0.00,meteohub,2013-07-09 20:32:00,
2013-07-09 13:37:00,71.2,60.1,30.09,SSE,157,0.0,7.0,68,0.00,,,0.00,meteohub,2013-07-09 20:37:00,
2013-07-09 13:42:00,71.8,60.6,30.09,SW,221,0.0,7.0,68,0.00,,,0.00,meteohub,2013-07-09 20:42:00,
2013-07-09 13:47:00,71.1,60.4,30.09,WSW,252,3.0,5.0,69,0.00,,,0.00,meteohub,2013-07-09 20:47:00,
2013-07-09 13:52:00,70.3,60.4,30.09,SSW,210,0.0,5.0,71,0.00,,,0.00,meteohub,2013-07-09 20:52:00,
2013-07-09 13:57:00,70.5,60.3,30.09,WNW,290,0.0,6.0,70,0.00,,,0.00,meteohub,2013-07-09 20:57:00,
2013-07-09 14:02:00,70.7,60.8,30.09,SW,221,0.0,6.0,71,0.00,,,0.00,meteohub,2013-07-09 21:02:00,
2013-07-09 14:07:00,72.1,61.0,30.09,SSE,163,0.0,6.0,68,0.00,,,0.00,meteohub,2013-07-09 21:07:00,
2013-07-09 14:12:00,72.9,60.8,30.09,South,169,1.0,4.0,66,0.00,,,0.00,meteohub,2013-07-09 21:12:00,
2013-07-09 14:17:00,72.9,60.4,30.09,SSE,165,2.0,6.0,65,0.00,,,0.00,meteohub,2013-07-09 21:17:00,
2013-07-09 14:22:00,72.0,59.9,30.09,South,175,5.0,7.0,66,0.00,,,0.00,meteohub,2013-07-09 21:22:00,
2013-07-09 14:27:00,72.1,59.7,30.08,SSE,168,0.0,7.0,65,0.00,,,0.00,meteohub,2013-07-09 21:27:00,
2013-07-09 14:32:00,72.0,59.5,30.08,South,182,1.0,7.0,65,0.00,,,0.00,meteohub,2013-07-09 21:32:00,
2013-07-09 14:37:00,72.0,60.4,30.08,South,169,0.0,7.0,67,0.00,,,0.00,meteohub,2013-07-09 21:37:00,
2013-07-09 14:42:00,72.7,59.4,30.08,SSE,160,0.0,7.0,63,0.00,,,0.00,meteohub,2013-07-09 21:42:00,
2013-07-09 14:47:00,73.6,59.4,30.08,SSE,163,4.0,7.0,61,0.00,,,0.00,meteohub,2013-07-09 21:47:00,
2013-07-09 14:52:00,73.9,59.7,30.08,SSW,198,4.0,7.0,61,0.00,,,0.00,meteohub,2013-07-09 21:52:00,
2013-07-09 14:57:00,73.6,59.7,30.08,SSE,161,2.0,7.0,62,0.00,,,0.00,meteohub,2013-07-09 21:57:00,
2013-07-09 15:03:00,73.2,59.9,30.08,South,171,2.0,7.0,63,0.00,,,0.00,meteohub,2013-07-09 22:03:00,
2013-07-09 15:08:00,73.0,60.1,30.07,SW,236,0.0,7.0,64,0.00,,,0.00,meteohub,2013-07-09 22:08:00,
2013-07-09 15:13:00,73.4,61.0,30.07,SW,219,2.0,5.0,65,0.00,,,0.00,meteohub,2013-07-09 22:13:00,
2013-07-09 15:18:00,73.0,61.0,30.07,WSW,238,4.0,6.0,66,0.00,,,0.00,meteohub,2013-07-09 22:18:00,
2013-07-09 15:23:00,72.1,60.1,30.07,WSW,238,4.0,6.0,66,0.00,,,0.00,meteohub,2013-07-09 22:23:00,
2013-07-09 15:28:00,71.8,60.6,30.07,SW,217,2.0,6.0,68,0.00,,,0.00,meteohub,2013-07-09 22:28:00,
2013-07-09 15:33:00,72.1,61.9,30.07,SW,223,1.0,6.0,70,0.00,,,0.00,meteohub,2013-07-09 22:33:00,
2013-07-09 15:34:00,72.5,62.2,30.07,SSW,213,2.0,6.0,70,0.00,,,0.00,meteohub,2013-07-09 22:34:00,
2013-07-09 15:39:00,72.5,60.4,30.06,WSW,241,0.0,5.0,66,0.00,,,0.00,meteohub,2013-07-09 22:39:00,
2013-07-09 15:44:00,72.9,60.4,30.06,SW,221,2.0,4.0,65,0.00,,,0.00,meteohub,2013-07-09 22:44:00,
2013-07-09 15:49:00,72.9,60.4,30.06,SW,222,2.0,4.0,65,0.00,,,0.00,meteohub,2013-07-09 22:49:00,
2013-07-09 15:54:00,72.5,61.0,30.06,WSW,254,0.0,5.0,67,0.00,,,0.00,meteohub,2013-07-09 22:54:00,
2013-07-09 15:59:00,72.1,61.0,30.06,WNW,296,0.0,5.0,68,0.00,,,0.00,meteohub,2013-07-09 22:59:00,
2013-07-09 16:04:00,72.3,61.5,30.06,SW,217,0.0,6.0,69,0.00,,,0.00,meteohub,2013-07-09 23:04:00,
2013-07-09 16:09:00,72.7,61.5,30.06,NW,326,1.0,6.0,68,0.00,,,0.00,meteohub,2013-07-09 23:09:00,
2013-07-09 16:14:00,72.7,61.5,30.06,West,275,2.0,5.0,68,0.00,,,0.00,meteohub,2013-07-09 23:14:00,
2013-07-09 16:19:00,73.2,62.1,30.06,WSW,254,2.0,4.0,68,0.00,,,0.00,meteohub,2013-07-09 23:19:00,
2013-07-09 16:24:00,73.8,61.3,30.06,West,267,3.0,4.0,65,0.00,,,0.00,meteohub,2013-07-09 23:24:00,
2013-07-09 16:29:00,73.2,61.5,30.05,SW,219,3.0,4.0,67,0.00,,,0.00,meteohub,2013-07-09 23:29:00,
2013-07-09 16:34:00,73.8,61.3,30.05,WSW,256,0.0,4.0,65,0.00,,,0.00,meteohub,2013-07-09 23:34:00,
2013-07-09 16:39:00,73.9,60.6,30.05,SW,221,1.0,4.0,63,0.00,,,0.00,meteohub,2013-07-09 23:39:00,
2013-07-09 16:44:00,74.3,59.9,30.05,WSW,248,1.0,4.0,61,0.00,,,0.00,meteohub,2013-07-09 23:44:00,
2013-07-09 16:49:00,74.5,60.6,30.05,SW,234,3.0,4.0,62,0.00,,,0.00,meteohub,2013-07-09 23:49:00,
2013-07-09 16:54:00,74.8,60.4,30.05,SSE,161,1.0,4.0,61,0.00,,,0.00,meteohub,2013-07-09 23:54:00,
2013-07-09 16:59:00,75.4,61.5,30.05,SSE,158,2.0,4.0,62,0.00,,,0.00,meteohub,2013-07-09 23:59:00,
2013-07-09 17:04:00,75.7,59.9,30.05,SSW,203,2.0,4.0,58,0.00,,,0.00,meteohub,2013-07-10 00:04:00,
2013-07-09 17:09:00,75.0,60.6,30.04,South,186,0.0,4.0,61,0.00,,,0.00,meteohub,2013-07-10 00:09:00,
2013-07-09 17:15:00,76.1,60.8,30.04,South,186,1.0,4.0,59,0.00,,,0.00,meteohub,2013-07-10 00:15:00,
2013-07-09 17:20:00,77.0,60.1,30.04,South,175,1.0,4.0,56,0.00,,,0.00,meteohub,2013-07-10 00:20:00,
2013-07-09 17:25:00,77.2,61.3,30.04,South,175,0.0,3.0,58,0.00,,,0.00,meteohub,2013-07-10 00:25:00,
2013-07-09 17:30:00,77.5,59.0,30.04,South,186,0.0,3.0,53,0.00,,,0.00,meteohub,2013-07-10 00:30:00,
2013-07-09 17:35:00,78.4,61.0,30.04,SSE,165,0.0,4.0,55,0.00,,,0.00,meteohub,2013-07-10 00:35:00,
2013-07-09 17:40:00,78.3,60.8,30.03,SSE,165,0.0,4.0,55,0.00,,,0.00,meteohub,2013-07-10 00:40:00,
2013-07-09 17:45:00,78.8,58.6,30.03,SSE,165,0.0,4.0,50,0.00,,,0.00,meteohub,2013-07-10 00:45:00,
2013-07-09 17:50:00,79.5,59.2,30.03,SSE,165,0.0,2.0,50,0.00,,,0.00,meteohub,2013-07-10 00:50:00,
2013-07-09 17:55:00,79.5,58.1,30.03,South,182,0.0,2.0,48,0.00,,,0.00,meteohub,2013-07-10 00:55:00,
2013-07-09 18:00:00,79.2,59.5,30.03,South,173,0.0,3.0,51,0.00,,,0.00,meteohub,2013-07-10 01:00:00,
2013-07-09 18:05:00,79.3,58.5,30.03,South,173,1.0,4.0,49,0.00,,,0.00,meteohub,2013-07-10 01:05:00,
2013-07-09 18:10:00,79.9,60.1,30.02,South,173,0.0,4.0,51,0.00,,,0.00,meteohub,2013-07-10 01:10:00,
2013-07-09 18:15:00,80.1,58.6,30.02,South,172,0.0,2.0,48,0.00,,,0.00,meteohub,2013-07-10 01:15:00,
2013-07-09 18:20:00,80.1,58.6,30.02,South,173,0.0,2.0,48,0.00,,,0.00,meteohub,2013-07-10 01:20:00,
2013-07-09 18:25:00,80.4,59.0,30.02,South,172,0.0,2.0,48,0.00,,,0.00,meteohub,2013-07-10 01:25:00,
2013-07-09 18:30:00,80.6,59.2,30.01,South,169,0.0,1.0,48,0.00,,,0.00,meteohub,2013-07-10 01:30:00,
2013-07-09 18:35:00,80.8,59.2,30.01,South,169,0.0,1.0,48,0.00,,,0.00,meteohub,2013-07-10 01:35:00,
2013-07-09 18:40:00,80.4,58.3,30.01,South,169,0.0,1.0,47,0.00,,,0.00,meteohub,2013-07-10 01:40:00,
2013-07-09 18:45:00,80.1,58.6,30.01,South,173,1.0,1.0,48,0.00,,,0.00,meteohub,2013-07-10 01:45:00,
2013-07-09 18:50:00,79.2,59.0,30.01,SSE,157,0.0,3.0,50,0.00,,,0.00,meteohub,2013-07-10 01:50:00,
2013-07-09 18:55:00,79.3,59.7,30.01,SSE,157,0.0,3.0,51,0.00,,,0.00,meteohub,2013-07-10 01:55:00,
2013-07-09 19:00:00,79.0,59.9,30.01,SSE,159,0.0,3.0,52,0.00,,,0.00,meteohub,2013-07-10 02:00:00,
2013-07-09 19:05:00,78.6,60.1,30.00,SSE,159,0.0,3.0,53,0.00,,,0.00,meteohub,2013-07-10 02:05:00,
2013-07-09 19:10:00,78.6,60.1,30.00,SSE,159,0.0,3.0,53,0.00,,,0.00,meteohub,2013-07-10 02:10:00,
2013-07-09 19:15:00,77.7,59.7,30.00,SSE,167,1.0,3.0,54,0.00,,,0.00,meteohub,2013-07-10 02:15:00,
2013-07-09 19:20:00,77.4,59.9,30.00,SSE,163,0.0,3.0,55,0.00,,,0.00,meteohub,2013-07-10 02:20:00,
2013-07-09 19:25:00,77.2,59.2,30.00,SSE,163,0.0,3.0,54,0.00,,,0.00,meteohub,2013-07-10 02:25:00,
2013-07-09 19:30:00,77.5,61.2,30.00,SSE,163,0.0,3.0,57,0.00,,,0.00,meteohub,2013-07-10 02:30:00,
2013-07-09 19:35:00,77.5,61.2,30.00,SSE,163,0.0,3.0,57,0.00,,,0.00,meteohub,2013-07-10 02:35:00,
2013-07-09 19:40:00,76.6,59.2,29.99,SSE,163,0.0,1.0,55,0.00,,,0.00,meteohub,2013-07-10 02:40:00,
2013-07-09 19:45:00,76.3,59.9,29.99,SSE,163,0.0,1.0,57,0.00,,,0.00,meteohub,2013-07-10 02:45:00,
2013-07-09 19:50:00,76.1,59.7,29.99,SSE,163,0.0,1.0,57,0.00,,,0.00,meteohub,2013-07-10 02:50:00,
2013-07-09 19:55:00,76.3,61.0,29.99,SSE,163,0.0,1.0,59,0.00,,,0.00,meteohub,2013-07-10 02:55:00,
2013-07-09 20:01:00,76.6,61.2,29.99,SSE,163,0.0,1.0,59,0.00,,,0.00,meteohub,2013-07-10 03:01:00,
2013-07-09 20:06:00,76.8,59.9,29.99,SSE,163,0.0,1.0,56,0.00,,,0.00,meteohub,2013-07-10 03:06:00,
2013-07-09 20:11:00,76.6,59.2,29.99,SSE,163,0.0,1.0,55,0.00,,,0.00,meteohub,2013-07-10 03:11:00,
2013-07-09 20:16:00,76.5,59.5,29.99,SSE,163,0.0,1.0,56,0.00,,,0.00,meteohub,2013-07-10 03:16:00,
2013-07-09 20:21:00,76.3,59.4,29.99,SSE,163,0.0,1.0,56,0.00,,,0.00,meteohub,2013-07-10 03:21:00,
2013-07-09 20:26:00,75.7,58.5,29.99,SSE,163,0.0,0.0,55,0.00,,,0.00,meteohub,2013-07-10 03:26:00,
2013-07-09 20:31:00,75.6,58.8,29.99,SSE,163,0.0,0.0,56,0.00,,,0.00,meteohub,2013-07-10 03:31:00,
2013-07-09 20:36:00,75.4,58.1,29.99,SSE,163,0.0,0.0,55,0.00,,,0.00,meteohub,2013-07-10 03:36:00,
2013-07-09 20:41:00,75.2,59.0,29.99,SSE,163,0.0,0.0,57,0.00,,,0.00,meteohub,2013-07-10 03:41:00,
2013-07-09 20:46:00,75.0,59.7,29.99,SSE,163,0.0,0.0,59,0.00,,,0.00,meteohub,2013-07-10 03:46:00,
2013-07-09 20:51:00,74.5,59.2,29.98,SSE,163,0.0,0.0,59,0.00,,,0.00,meteohub,2013-07-10 03:51:00,
2013-07-09 20:56:00,73.6,58.8,29.98,SSE,163,0.0,0.0,60,0.00,,,0.00,meteohub,2013-07-10 03:56:00,
2013-07-09 21:01:00,72.9,59.5,29.99,SSE,163,0.0,1.0,63,0.00,,,0.00,meteohub,2013-07-10 04:01:00,
2013-07-09 21:06:00,72.5,61.3,29.99,SSE,163,0.0,1.0,68,0.00,,,0.00,meteohub,2013-07-10 04:06:00,
2013-07-09 21:11:00,72.0,61.2,29.99,SSE,163,0.0,1.0,69,0.00,,,0.00,meteohub,2013-07-10 04:11:00,
2013-07-09 21:16:00,71.2,61.3,29.99,West,266,0.0,1.0,71,0.00,,,0.00,meteohub,2013-07-10 04:16:00,
2013-07-09 21:21:00,70.9,62.6,29.99,West,266,0.0,1.0,75,0.00,,,0.00,meteohub,2013-07-10 04:21:00,
2013-07-09 21:26:00,70.3,62.4,29.99,NW,325,0.0,1.0,76,0.00,,,0.00,meteohub,2013-07-10 04:26:00,
2013-07-09 21:31:00,70.0,62.4,29.99,NW,325,0.0,3.0,77,0.00,,,0.00,meteohub,2013-07-10 04:31:00,
2013-07-09 21:36:00,69.4,61.5,29.99,NW,325,0.0,3.0,76,0.00,,,0.00,meteohub,2013-07-10 04:36:00,
2013-07-09 21:41:00,69.3,61.3,29.99,NW,325,0.0,3.0,76,0.00,,,0.00,meteohub,2013-07-10 04:41:00,
2013-07-09 21:46:00,69.1,60.4,29.99,NW,325,0.0,1.0,74,0.00,,,0.00,meteohub,2013-07-10 04:46:00,
2013-07-09 21:51:00,69.1,60.4,29.99,NW,325,0.0,1.0,74,0.00,,,0.00,meteohub,2013-07-10 04:51:00,
2013-07-09 21:56:00,68.9,59.9,29.99,NW,325,0.0,1.0,73,0.00,,,0.00,meteohub,2013-07-10 04:56:00,
2013-07-09 22:01:00,68.7,59.7,29.99,NW,325,0.0,1.0,73,0.00,,,0.00,meteohub,2013-07-10 05:01:00,
2013-07-09 22:07:00,68.7,59.7,29.99,NW,325,0.0,1.0,73,0.00,,,0.00,meteohub,2013-07-10 05:07:00,
2013-07-09 22:12:00,68.7,60.1,29.99,NW,324,0.0,1.0,74,0.00,,,0.00,meteohub,2013-07-10 05:12:00,
2013-07-09 22:17:00,68.7,60.1,29.99,WNW,298,0.0,3.0,74,0.00,,,0.00,meteohub,2013-07-10 05:17:00,
2013-07-09 22:22:00,68.7,60.1,29.99,WNW,298,0.0,3.0,74,0.00,,,0.00,meteohub,2013-07-10 05:22:00,
2013-07-09 22:27:00,68.7,60.8,30.00,WNW,298,0.0,3.0,76,0.00,,,0.00,meteohub,2013-07-10 05:27:00,
2013-07-09 22:32:00,68.5,61.0,30.00,WNW,298,0.0,1.0,77,0.00,,,0.00,meteohub,2013-07-10 05:32:00,
2013-07-09 22:37:00,68.2,60.3,29.99,WNW,298,0.0,1.0,76,0.00,,,0.00,meteohub,2013-07-10 05:37:00,
2013-07-09 22:42:00,67.6,59.0,29.99,NNE,30,0.0,1.0,74,0.00,,,0.00,meteohub,2013-07-10 05:42:00,
2013-07-09 22:47:00,66.7,58.1,29.99,NNE,29,0.0,1.0,74,0.00,,,0.00,meteohub,2013-07-10 05:47:00,
2013-07-09 22:52:00,66.6,58.1,29.99,NNE,30,0.0,1.0,74,0.00,,,0.00,meteohub,2013-07-10 05:52:00,
2013-07-09 22:57:00,66.4,57.9,29.99,NNE,30,0.0,1.0,74,0.00,,,0.00,meteohub,2013-07-10 05:57:00,
2013-07-09 23:02:00,66.4,57.9,29.99,NNE,30,0.0,1.0,74,0.00,,,0.00,meteohub,2013-07-10 06:02:00,
2013-07-09 23:07:00,66.0,58.3,29.99,NE,49,0.0,1.0,76,0.00,,,0.00,meteohub,2013-07-10 06:07:00,
2013-07-09 23:12:00,65.8,58.5,29.99,NE,49,0.0,1.0,77,0.00,,,0.00,meteohub,2013-07-10 06:12:00,
2013-07-09 23:17:00,65.8,58.8,29.99,NE,49,0.0,1.0,78,0.00,,,0.00,meteohub,2013-07-10 06:17:00,
2013-07-09 23:22:00,65.8,59.5,29.99,NE,49,0.0,1.0,80,0.00,,,0.00,meteohub,2013-07-10 06:22:00,
2013-07-09 23:27:00,66.0,60.1,29.99,NE,54,0.0,0.0,81,0.00,,,0.00,meteohub,2013-07-10 06:27:00,
2013-07-09 23:32:00,66.2,60.6,29.99,NE,54,0.0,2.0,82,0.00,,,0.00,meteohub,2013-07-10 06:32:00,
2013-07-09 23:37:00,65.7,59.4,29.99,NE,53,0.0,2.0,80,0.00,,,0.00,meteohub,2013-07-10 06:37:00,
2013-07-09 23:42:00,65.1,59.5,29.99,NE,53,0.0,1.0,82,0.00,,,0.00,meteohub,2013-07-10 06:42:00,
2013-07-09 23:47:00,65.1,60.1,30.00,NNW,335,0.0,3.0,84,0.00,,,0.00,meteohub,2013-07-10 06:47:00,
2013-07-09 23:52:00,65.5,60.4,30.00,NNW,335,0.0,3.0,84,0.00,,,0.00,meteohub,2013-07-10 06:52:00,
2013-07-09 23:57:00,64.9,59.7,29.99,NE,35,0.0,3.0,83,0.00,,,0.00,meteohub,2013-07-10 06:57:00,